Shoshone, California Weather observations

Data are for observation ending at time listed.
 Day   Time    Ave.   Ave.  Ave.  Vector   Max.   Stn.    Total    Solar   Ave.  
  of    of     Air    Rel.  Wind   Wind    Wind   Baro.  Precip.   Rad.    Soil  
Year   Day     Temp.  Hum.  Speed  Dir.    Gust   Pres.                    Temp. 
2026   (PST)    F      %     mph   deg.    mph     mb.     in.     W/m2     F   
------------------------------------------------------------------------------
 128   10:10   89.9    16    2.9    85      6.5    967     0.00     888    102.8
 128   10:20   91.8    15    1.7   127      4.6    967     0.00     902    102.9
 128   10:30   91.9    14    1.9   120      5.6    966     0.00     914    103.2
 128   10:40   93.5    14    2.2   153      7.0    966     0.00     926    103.5
 128   10:50   92.8    14    1.7   236      4.8    966     0.00     936    103.8
 128   11:00   94.3    13    2.9   306      5.8    966     0.00     944    103.9
 128   11:10   93.6    13    3.0   310      7.2    966     0.00     950    104.0
 128   11:20   93.9    12    2.5   316      5.4    966     0.00     957    103.9
 128   11:30   93.9    12    4.5   344     10.3    966     0.00     962    103.7
 128   11:40   93.9    12    3.4   316      8.8    966     0.00     963    103.4
 128   11:50   95.6    11    3.8   324      9.8    966     0.00     963    103.1
 128   12:00   95.5    11    4.0   332      6.9    966     0.00     963    103.3
 128   12:10   96.4    11    2.5   330      5.6    965     0.00     961    103.7
 128   12:20   95.8    11    3.8    92      8.7    965     0.00     956    104.2
 128   12:30   97.0    11    3.9   178      8.6    965     0.00     949    104.9
 128   12:40   97.8    11    2.0   226      5.6    965     0.00     940    105.9
 128   12:50   99.6    11    3.0   170      7.9    964     0.00     932    107.4
 128   13:00   99.0    11    3.8   164     10.4    964     0.00     918    109.4
 128   13:10   99.0    11    2.7   136      7.0    964     0.00     908    111.2
 128   13:20  100.4    11    3.8   181     10.4    964     0.00     896    112.6
 128   13:30  100.4    10    4.3   176      9.9    964     0.00     881    113.9
 128   13:40  100.3    10    4.0   175     10.2    964     0.00     863    114.9
 128   13:50  100.7    10    3.8   176     11.9    963     0.00     848    115.6
 128   14:00  101.3     9    4.2   186      9.7    963     0.00     828    116.2
 128   14:10  101.5     9    4.2   179     10.2    963     0.00     806    116.7
 128   14:20  102.4     9    3.7   175     11.0    963     0.00     787    117.3
 128   14:30  101.2     9    4.9   169     12.4    963     0.00     761    117.7
 128   14:40  102.3     9    3.7   181      8.3    963     0.00     738    117.9
 128   14:50  102.5     8    4.0   167     10.9    962     0.00     713    118.1
 128   15:00  102.5     8    3.8   171     17.5    962     0.00     687    118.3
 128   15:10  101.3     8    7.1   180     15.7    962     0.00     657    118.3
 128   15:20  101.8     8    4.2   168      8.3    962     0.00     628    117.9
 128   15:30  102.6     8    3.5   170     10.4    962     0.00     597    117.6
 128   15:40  101.9     7    6.3   185     13.3    962     0.00     568    117.4
 128   15:50  102.0     7    4.2   190     13.4    962     0.00     535    117.1
 128   16:00  103.2     7    3.3   244      8.8    962     0.00     502    116.9
 128   16:10  102.3     7    2.9     5      5.7    962     0.00     467    116.8
 128   16:20  101.8     7    3.1    61      7.5    962     0.00     432    116.8
 128   16:30  101.4     7    3.1    91      7.5    961     0.00     399    116.5
 128   16:40  103.2     7    1.6    93      4.8    961     0.00     362    116.2
 128   16:50  101.5     7    3.0    47      5.1    961     0.00     326    115.9
 128   17:00  101.7     7    2.8    14      4.9    961     0.00     291    115.3
 128   17:10  100.9     7    3.3    35      6.0    961     0.00     255    114.6
 128   17:20  101.2     7    2.6    85      4.3    961     0.00     219    113.6
 128   17:30  100.9     7    2.6    90      5.2    961     0.00     185    112.7
 128   17:40  101.6     8    1.2    95      4.5    961     0.00     153    111.6
 128   17:50  102.2     8    1.0   193      2.6    961     0.00     122    110.4
 128   18:00  101.2     9    0.2   193      2.1    961     0.00      89    109.0
 128   18:10  101.0     9    0.2   163      1.4    961     0.00      62    107.3
 128   18:20   99.0    10    0.1   177      1.5    961     0.00      35    105.2
 128   18:30   95.8    10    0.0   121      0.7    961     0.00      15    102.5
 128   18:40   93.0    10    0.0     0      0.0    961     0.00       6    99.2
 128   18:50   91.1    11    0.1   194      1.7    961     0.00       0    95.5
 128   19:00   90.3    11    0.3   178      4.2    961     0.00       0    91.7
 128   19:10   89.6    11    0.0   346      0.2    961     0.00       0    88.3
 128   19:20   88.0    12    0.0     0      0.0    961     0.00       0    85.1
 128   19:30   87.6    12    0.0     0      0.0    961     0.00       0    82.1
 128   19:40   87.2    12    0.0     0      0.0    961     0.00       0    79.5
 128   19:50   87.1    12    0.7   170      2.6    961     0.00       0    77.3
 128   20:00   86.8    13    0.3   114      1.8    962     0.00       0    75.7
 128   20:10   86.5    13    2.5   187      8.6    962     0.00       0    74.4
 128   20:20   91.9    12    4.6   195      8.6    962     0.00       0    73.9
 128   20:30   92.7    12    9.0   232     21.7    962     0.00       0    75.4
 128   20:40   92.7    12    7.2   227     17.5    962     0.00       0    77.8
 128   20:50   92.2    11    3.4   206      8.3    962     0.00       0    80.0
 128   21:00   91.7    11    5.8   239     12.1    962     0.00       0    81.2
 128   21:10   91.3    12    3.4   228      8.0    963     0.00       0    82.0
 128   21:20   90.5    12    2.9   180      7.3    963     0.00       0    82.4
 128   21:30   89.3    12    2.4   152      8.8    963     0.00       0    82.3
 128   21:40   87.7    13    2.7    75      4.5    963     0.00       0    81.6
 128   21:50   86.3    14    2.3   238      5.2    963     0.00       0    80.7
 128   22:00   84.8    15    1.3    98      3.8    963     0.00       0    79.2
 128   22:10   87.0    14    1.9    41      4.0    963     0.00       0    77.4
 128   22:20   86.8    13    1.5   205      4.5    963     0.00       0    76.2
 128   22:30   84.2    15    1.8   178      6.0    963     0.00       0    75.0
 128   22:40   82.7    15    0.8   172      4.5    963     0.00       0    73.8
 128   22:50   84.3    14    1.4   173      7.0    963     0.00       0    72.4
 128   23:00   85.2    13    5.1   179      9.7    963     0.00       0    71.5
 128   23:10   84.6    13    3.2   166      5.8    963     0.00       0    71.3
 128   23:20   84.0    13    6.0   184      9.1    963     0.00       0    71.3
 128   23:30   85.4    12    8.9   185     12.3    963     0.00       0    71.5
 128   23:40   86.1    12    5.9   184      9.6    963     0.00       0    72.4
 128   23:50   83.9    13    2.7   178      5.1    963     0.00       0    73.1
 129    0:00   82.3    13    2.2   174      4.7    963     0.00       0    72.9
 129    0:10   81.2    14    1.7   180      3.1    963     0.00       0    71.9
 129    0:20   80.3    14    1.6    99      3.3    963     0.00       0    70.5
 129    0:30   78.7    15    2.1    81      6.0    963     0.00       0    69.1
 129    0:40   77.1    15    0.3   144      2.1    963     0.00       0    67.4
 129    0:50   76.7    16    0.3   174      2.9    964     0.00       0    65.6
 129    1:00   75.9    18    0.5   216      2.3    964     0.00       0    63.8
 129    1:10   75.8    18    1.4   173      5.1    964     0.00       0    62.1
 129    1:20   78.9    18    1.3   168      4.2    963     0.00       0    60.8
 129    1:30   79.6    19    2.7   167      7.8    963     0.00       0    60.3
 129    1:40   80.2    19    2.1   167      5.9    963     0.00       0    60.5
 129    1:50   79.6    19    1.1   357      3.2    963     0.00       0    60.9
 129    2:00   76.9    21    2.3   341      3.3    964     0.00       0    61.3
 129    2:10   76.2    22    1.4   320      2.7    964     0.00       0    61.1
 129    2:20   74.1    24    0.9   347      2.0    964     0.00       0    60.4
 129    2:30   73.4    25    0.9    61      2.5    964     0.00       0    59.3
 129    2:40   72.1    24    1.7   104      4.4    964     0.00       0    58.0
 129    2:50   71.9    22    1.9    84      4.0    964     0.00       0    56.6
 129    3:00   70.7    22    1.8    43      3.1    964     0.00       0    55.3
 129    3:10   70.1    22    1.9    28      4.2    964     0.00       0    54.1
 129    3:20   69.5    23    1.3    44      3.2    964     0.00       0    52.9
 129    3:30   67.8    24    0.7    52      3.1    964     0.00       0    51.6
 129    3:40   67.0    24    0.8   103      2.3    964     0.00       0    50.1
 129    3:50   67.3    23    1.2    79      2.4    964     0.00       0    48.6
 129    4:00   66.4    25    0.6    70      1.5    964     0.00       0    47.4
 129    4:10   64.7    27    1.1    70      1.9    964     0.00       0    46.2
 129    4:20   65.3    26    1.1    50      2.4    964     0.00       0    44.9
 129    4:30   63.4    29    1.4    32      3.0    965     0.00       0    43.8
 129    4:40   63.8    28    1.3    51      2.6    965     0.00       3    42.7
 129    4:50   63.8    27    1.2    86      3.0    965     0.00       7    41.7
 129    5:00   63.5    27    1.9    75      3.2    965     0.00       8    40.9
 129    5:10   62.7    30    0.6    60      1.5    966     0.00      18    40.4
 129    5:20   63.1    30    0.9    84      1.8    966     0.00      20    39.8
 129    5:30   63.0    31    0.7   201      1.8    966     0.00      37    39.3
 129    5:40   63.6    33    0.8    38      1.6    966     0.00     111    39.1
 129    5:50   66.9    31    1.2    46      2.4    966     0.00     146    39.3
 129    6:00   70.2    27    0.6     6      2.1    966     0.00     182    40.6
 129    6:10   72.7    27    0.3   200      1.4    966     0.00     215    43.1
 129    6:20   74.7    25    0.2   216      1.2    966     0.00     248    46.4
 129    6:30   78.2    22    0.0     0      0.0    966     0.00     278    50.1
 129    6:40   77.2    22    0.6   111      1.7    966     0.00     315    54.0
 129    6:50   79.1    20    0.3    76      1.9    966     0.00     336    58.1
 129    7:00   80.7    20    0.7    96      2.0    966     0.00     387    62.2
 129    7:10   82.1    18    0.5    55      2.0    966     0.00     421    66.3
 129    7:20   82.9    18    0.5   145      1.7    966     0.00     456    70.4
 129    7:30   83.9    18    0.1   102      1.0    966     0.00     490    74.3
 129    7:40   85.1    17    0.6    49      1.4    966     0.00     525    77.9
 129    7:50   85.1    18    1.0    68      3.4    966     0.00     556    81.3
 129    8:00   84.7    18    1.4    48      3.1    966     0.00     588    84.4
 129    8:10   85.2    17    1.9    81      5.5    966     0.00     618    87.0
 129    8:20   85.0    17    1.5     6      3.2    966     0.00     649    89.4
 129    8:30   87.3    16    1.5   172      6.1    966     0.00     676    91.5
 129    8:40   86.4    16    2.5   178      4.8    966     0.00     703    93.5
 129    8:50   87.9    15    1.1   136      3.0    966     0.00     731    95.0
 129    9:00   87.8    15    1.9    68      5.0    966     0.00     756    96.4
 129    9:10   88.5    15    1.6   188      4.2    966     0.00     781    97.6
 129    9:20   89.9    14    1.3   180      5.2    966     0.00     804    98.9
 129    9:30   90.5    14    1.8   124      5.0    966     0.00     827    100.1
 129    9:40   90.2    14    2.6   138      6.9    966     0.00     847    101.2
 129    9:50   90.7    14    2.5   174      5.8    966     0.00     864    102.0
 129   10:00   91.5    13    1.3   125      3.9    966     0.00     882    102.6

Return to Shoshone, California graphs page.


Western Regional Climate Center,wrcc@dri.edu